Terminal Aerodrome Forecast
Issued by NWS Northern Indiana

Home | Current Version | Previous Version | Graphics & Text | Print | Product List | Glossary On
Versions: 1 2 3 4 5 6 7 8 9 10 11 12 13 14 15 16 17
000
FTUS43 KIWX 132209 AAA
TAFFWA
TAF AMD
KFWA 132209Z 1322/1418 21013KT 2SM -SN BR OVC012
      TEMPO 1322/1402 1SM -SN BR BKN006
     FM140300 28017G24KT P6SM OVC015
     FM141100 35008KT P6SM SCT025=

USA.gov is the U.S. government's official web portal to all federal, state and local government web resources and services.